Time;durP1;ratioP1;P1;durP2;ratioP2;P2;SDS_P1;SDS_P2;PMS_P1;PMS_P2;Temp;Humidity;BMP_temperature;BMP_pressure;BME280_temperature;BME280_humidity;BME280_pressure;Samples;Min_cycle;Max_cycle;Signal;HPM_P1;HPM_P2
2023/03/11 00:00:43;;;;;;;25.37;22.60;;;;;;;13.28;100.00;99548.16;2079732;28;20263;-60
2023/03/11 00:01:44;;;;;;;28.13;23.03;;;;;;;13.26;100.00;99559.00;2079725;28;20449;-59
2023/03/11 00:02:46;;;;;;;25.53;22.10;;;;;;;13.29;100.00;99557.28;2072875;28;20437;-59
2023/03/11 00:03:47;;;;;;;24.43;22.03;;;;;;;13.33;100.00;99555.09;2085679;28;20719;-59
2023/03/11 00:04:48;;;;;;;24.93;22.23;;;;;;;13.32;100.00;99550.78;2077530;28;20443;-59
2023/03/11 00:05:49;;;;;;;24.40;21.97;;;;;;;13.33;100.00;99552.31;2076794;28;20458;-59
2023/03/11 00:06:50;;;;;;;26.40;23.27;;;;;;;13.37;100.00;99558.47;2080078;28;20198;-60
2023/03/11 00:07:50;;;;;;;23.37;21.03;;;;;;;13.42;100.00;99555.03;2080367;28;20416;-59
2023/03/11 00:08:51;;;;;;;22.93;20.53;;;;;;;13.09;100.00;99509.84;2079403;28;20189;-59
2023/03/11 00:09:51;;;;;;;23.00;20.63;;;;;;;13.46;100.00;99550.03;2075541;28;20178;-59
2023/03/11 00:10:59;;;;;;;25.47;21.53;;;;;;;13.46;100.00;99550.81;2080339;28;20192;-59
2023/03/11 00:11:59;;;;;;;23.13;20.07;;;;;;;13.44;100.00;99553.31;2072680;28;20732;-59
2023/03/11 00:13:01;;;;;;;23.80;21.30;;;;;;;12.88;100.00;99472.75;2079206;28;20860;-60
2023/03/11 00:14:01;;;;;;;23.80;21.37;;;;;;;13.36;100.00;99549.34;2080297;28;20213;-59
2023/03/11 00:15:02;;;;;;;24.03;21.63;;;;;;;13.34;100.00;99549.06;2075855;28;20428;-60
2023/03/11 00:16:03;;;;;;;22.77;20.53;;;;;;;13.36;100.00;99552.13;2072262;28;20190;-59
2023/03/11 00:17:03;;;;;;;23.00;20.57;;;;;;;13.41;100.00;99551.47;2074011;28;20622;-59
2023/03/11 00:18:04;;;;;;;22.43;20.23;;;;;;;13.37;100.00;99550.88;2080460;28;20180;-59
2023/03/11 00:19:05;;;;;;;22.57;20.27;;;;;;;13.37;100.00;99547.34;2080318;28;20183;-59
2023/03/11 00:20:13;;;;;;;23.30;20.80;;;;;;;13.40;100.00;99547.16;2080615;28;20466;-59
2023/03/11 00:21:16;;;;;;;22.90;20.57;;;;;;;13.43;100.00;99545.44;2072108;28;20165;-59
2023/03/11 00:22:16;;;;;;;22.13;20.00;;;;;;;13.49;100.00;99547.06;2079713;28;20443;-60
2023/03/11 00:23:17;;;;;;;21.63;19.43;;;;;;;13.60;100.00;99540.94;2080302;28;20440;-60
2023/03/11 00:24:17;;;;;;;20.90;18.80;;;;;;;13.53;100.00;99536.50;2080456;28;20215;-60
2023/03/11 00:25:19;;;;;;;19.23;17.23;;;;;;;13.54;100.00;99528.94;2080306;28;20647;-58
2023/03/11 00:26:19;;;;;;;20.90;18.77;;;;;;;13.54;100.00;99538.06;2079828;28;20236;-60
2023/03/11 00:27:20;;;;;;;20.80;18.70;;;;;;;13.57;100.00;99525.97;2079761;28;20804;-59
2023/03/11 00:28:24;;;;;;;21.20;18.97;;;;;;;13.43;100.00;99507.22;2080370;28;20193;-59
2023/03/11 00:29:24;;;;;;;19.93;17.93;;;;;;;13.62;100.00;99530.09;2080612;28;20181;-59
2023/03/11 00:30:25;;;;;;;18.83;16.93;;;;;;;13.06;100.00;99436.47;2080495;28;20445;-59
2023/03/11 00:31:26;;;;;;;19.43;17.37;;;;;;;13.64;100.00;99525.59;2079203;28;20279;-59
2023/03/11 00:32:26;;;;;;;21.27;17.53;;;;;;;13.63;100.00;99526.06;2079675;28;20449;-59
2023/03/11 00:33:27;;;;;;;20.40;18.30;;;;;;;13.63;100.00;99521.25;2080371;28;20578;-59
2023/03/11 00:34:27;;;;;;;19.23;17.33;;;;;;;13.65;100.00;99518.00;2080206;28;20218;-59
2023/03/11 00:35:30;;;;;;;19.23;17.37;;;;;;;13.63;100.00;99521.25;2080111;28;20196;-59
2023/03/11 00:36:32;;;;;;;19.10;17.20;;;;;;;13.67;100.00;99523.84;2080318;28;20181;-59
2023/03/11 00:37:33;;;;;;;19.80;16.87;;;;;;;13.68;100.00;99505.91;2073758;28;20412;-59
2023/03/11 00:38:33;;;;;;;19.47;17.50;;;;;;;13.71;100.00;99504.94;2082016;28;20412;-59
2023/03/11 00:39:34;;;;;;;21.67;18.27;;;;;;;13.69;100.00;99499.84;2082042;28;20657;-59
2023/03/11 00:40:35;;;;;;;18.93;17.13;;;;;;;12.98;100.00;99390.84;2077519;28;20193;-59
2023/03/11 00:41:36;;;;;;;20.57;18.47;;;;;;;13.66;100.00;99500.81;2081682;28;20179;-59
2023/03/11 00:42:36;;;;;;;21.20;19.00;;;;;;;13.66;100.00;99503.59;2081831;28;20195;-59
2023/03/11 00:43:37;;;;;;;20.47;18.40;;;;;;;13.68;100.00;99503.13;2082195;28;20940;-59
2023/03/11 00:44:37;;;;;;;20.60;18.50;;;;;;;13.61;100.00;99498.72;2079584;28;20175;-59
2023/03/11 00:45:38;;;;;;;19.77;17.70;;;;;;;13.62;100.00;99494.69;2074772;28;20200;-59
2023/03/11 00:46:39;;;;;;;30.43;18.50;;;;;;;13.58;100.00;99490.56;2081686;28;20805;-59
2023/03/11 00:47:39;;;;;;;25.27;19.53;;;;;;;13.14;100.00;99425.75;2081690;28;20191;-60
2023/03/11 00:48:40;;;;;;;23.53;18.47;;;;;;;13.52;100.00;99490.44;2075012;28;20178;-59
2023/03/11 00:49:40;;;;;;;29.80;18.87;;;;;;;13.43;100.00;99468.25;2073811;28;20195;-59
2023/03/11 00:50:41;;;;;;;20.63;17.67;;;;;;;13.51;100.00;99482.56;2078049;28;20175;-59
2023/03/11 00:51:41;;;;;;;23.67;19.03;;;;;;;13.45;100.00;99470.56;2081504;28;20237;-59
2023/03/11 00:52:44;;;;;;;22.20;18.80;;;;;;;13.52;100.00;99476.53;2078658;28;20421;-59
2023/03/11 00:53:44;;;;;;;19.87;17.77;;;;;;;13.52;100.00;99484.13;2072952;28;20222;-59
2023/03/11 00:54:45;;;;;;;21.10;17.67;;;;;;;13.34;100.00;99459.25;2073759;28;20498;-59
2023/03/11 00:55:45;;;;;;;159.93;23.27;;;;;;;13.49;100.00;99480.28;2082019;28;20180;-59
2023/03/11 00:56:46;;;;;;;20.37;17.60;;;;;;;13.48;100.00;99475.94;2081302;28;20191;-59
2023/03/11 00:57:46;;;;;;;19.43;17.13;;;;;;;13.33;100.00;99458.47;2081877;28;20237;-59
2023/03/11 00:58:47;;;;;;;38.50;17.20;;;;;;;13.43;100.00;99470.28;2081469;28;20652;-59
2023/03/11 00:59:47;;;;;;;51.57;18.37;;;;;;;13.49;100.00;99471.16;2081863;28;20233;-59
2023/03/11 01:00:47;;;;;;;112.10;20.83;;;;;;;13.35;100.00;99455.22;2081689;28;20232;-59
2023/03/11 01:01:48;;;;;;;179.90;22.77;;;;;;;13.35;100.00;99467.13;2081645;28;20199;-59
2023/03/11 01:02:49;;;;;;;113.00;18.03;;;;;;;13.35;100.00;99472.69;2081478;28;20738;-59
2023/03/11 01:03:49;;;;;;;25.90;15.00;;;;;;;13.30;100.00;99464.22;2082185;28;20630;-60
2023/03/11 01:04:56;;;;;;;19.07;15.00;;;;;;;13.28;100.00;99473.03;2081383;28;20814;-59
2023/03/11 01:05:56;;;;;;;22.20;15.70;;;;;;;13.37;100.00;99477.78;2074699;28;20193;-59
2023/03/11 01:06:57;;;;;;;102.30;19.53;;;;;;;13.23;100.00;99468.16;2072991;28;20447;-59
2023/03/11 01:07:57;;;;;;;36.83;20.13;;;;;;;13.16;100.00;99471.31;2077526;28;20222;-59
2023/03/11 01:08:58;;;;;;;19.10;17.23;;;;;;;13.19;100.00;99464.03;2081037;28;20223;-59
2023/03/11 01:09:59;;;;;;;21.30;17.27;;;;;;;13.26;100.00;99469.97;2081891;28;20174;-59
2023/03/11 01:11:01;;;;;;;76.83;19.73;;;;;;;13.28;100.00;99467.47;2079911;28;20177;-59
2023/03/11 01:12:01;;;;;;;23.17;17.90;;;;;;;13.23;100.00;99470.94;2073745;28;20182;-59
2023/03/11 01:13:03;;;;;;;38.73;19.63;;;;;;;12.34;100.00;99342.56;2081826;28;20420;-59
2023/03/11 01:14:03;;;;;;;56.47;21.10;;;;;;;13.17;100.00;99464.50;2081516;28;20215;-59
2023/03/11 01:15:06;;;;;;;23.17;18.43;;;;;;;13.23;100.00;99470.94;2075313;28;20930;-59
2023/03/11 01:16:07;;;;;;;20.57;17.50;;;;;;;13.26;100.00;99464.41;2079016;28;20225;-59
2023/03/11 01:17:08;;;;;;;18.93;16.87;;;;;;;13.31;100.00;99460.97;2080987;28;20899;-59
2023/03/11 01:18:09;;;;;;;30.03;17.00;;;;;;;13.33;100.00;99460.50;2081623;28;20449;-60
2023/03/11 01:19:09;;;;;;;57.17;18.83;;;;;;;13.32;100.00;99451.38;2079403;28;20196;-60
2023/03/11 01:20:11;;;;;;;134.00;20.40;;;;;;;13.33;100.00;99444.56;2073439;28;20545;-59
2023/03/11 01:21:11;;;;;;;87.23;19.70;;;;;;;13.34;100.00;99448.91;2073226;28;20182;-59
2023/03/11 01:22:12;;;;;;;257.93;25.03;;;;;;;13.32;100.00;99442.28;2081951;28;20420;-59
2023/03/11 01:23:14;;;;;;;103.17;20.27;;;;;;;13.30;100.00;99434.41;2074484;28;20189;-59
2023/03/11 01:24:14;;;;;;;209.97;22.37;;;;;;;13.30;100.00;99436.41;2073518;28;20706;-59
2023/03/11 01:25:17;;;;;;;101.80;20.30;;;;;;;13.26;100.00;99433.81;2078352;28;20848;-59
2023/03/11 01:26:17;;;;;;;65.90;19.73;;;;;;;13.21;100.00;99433.72;2077432;28;20189;-59
2023/03/11 01:27:18;;;;;;;131.47;20.87;;;;;;;13.24;100.00;99438.31;2075572;28;20444;-59
2023/03/11 01:28:18;;;;;;;40.20;19.27;;;;;;;13.24;100.00;99432.75;2079781;28;20644;-59
2023/03/11 01:29:18;;;;;;;45.80;17.87;;;;;;;13.30;100.00;99433.63;2073780;28;20176;-59
2023/03/11 01:30:22;;;;;;;26.17;17.50;;;;;;;13.31;100.00;99435.94;2081710;28;20178;-59
2023/03/11 01:31:22;;;;;;;94.83;19.53;;;;;;;13.30;100.00;99425.28;2073437;28;20247;-59
2023/03/11 01:32:23;;;;;;;33.03;17.23;;;;;;;13.26;100.00;99422.69;2079924;28;20522;-59
2023/03/11 01:33:23;;;;;;;205.33;23.17;;;;;;;13.26;100.00;99435.81;2076008;28;20195;-59
2023/03/11 01:34:23;;;;;;;127.37;19.60;;;;;;;13.22;100.00;99427.66;2073121;28;20288;-59
2023/03/11 01:35:26;;;;;;;86.27;17.87;;;;;;;13.24;100.00;99432.75;2076351;28;20244;-59
2023/03/11 01:36:27;;;;;;;72.10;17.83;;;;;;;13.23;100.00;99434.00;2081313;28;20250;-59
2023/03/11 01:37:27;;;;;;;78.33;17.47;;;;;;;13.20;100.00;99429.41;2080958;28;20416;-59
2023/03/11 01:38:28;;;;;;;122.20;18.20;;;;;;;13.20;100.00;99426.63;2081646;28;20176;-59
2023/03/11 01:39:28;;;;;;;161.43;19.60;;;;;;;13.18;100.00;99429.13;2081614;28;20190;-59
2023/03/11 01:40:38;;;;;;;156.33;20.30;;;;;;;13.16;100.00;99426.06;2081276;28;20273;-59
2023/03/11 01:41:39;;;;;;;144.30;19.13;;;;;;;13.19;100.00;99427.88;2081287;28;20740;-60
2023/03/11 01:42:39;;;;;;;123.23;19.33;;;;;;;13.14;100.00;99422.97;2081404;28;20871;-59
2023/03/11 01:43:42;;;;;;;249.20;22.03;;;;;;;13.13;100.00;99425.00;2076773;28;20197;-59
2023/03/11 01:44:43;;;;;;;150.77;20.00;;;;;;;13.13;100.00;99427.78;2077138;28;20220;-59
2023/03/11 01:45:46;;;;;;;117.67;19.60;;;;;;;13.12;100.00;99423.44;2078652;28;20449;-59
2023/03/11 01:46:53;;;;;;;156.87;21.63;;;;;;;13.13;100.00;99424.22;2074370;28;20212;-59
2023/03/11 01:47:53;;;;;;;107.70;17.63;;;;;;;13.09;100.00;99424.41;2079596;28;20788;-59
2023/03/11 01:48:56;;;;;;;149.57;19.63;;;;;;;13.05;100.00;99426.59;2073616;28;20440;-59
2023/03/11 01:49:57;;;;;;;146.43;19.60;;;;;;;13.04;100.00;99429.84;2081611;28;20654;-59
2023/03/11 01:50:58;;;;;;;121.27;18.57;;;;;;;13.00;100.00;99426.50;2073197;28;20815;-58
2023/03/11 01:52:06;;;;;;;137.53;18.13;;;;;;;12.94;100.00;99425.59;2080224;28;20220;-59
2023/03/11 01:53:08;;;;;;;162.00;19.20;;;;;;;12.92;100.00;99431.63;2074742;28;20197;-59
2023/03/11 01:54:12;;;;;;;116.13;17.73;;;;;;;12.91;100.00;99430.09;2078651;28;20482;-59
2023/03/11 01:55:15;;;;;;;82.10;15.93;;;;;;;12.91;100.00;99430.09;2076306;28;20954;-59
2023/03/11 01:56:16;;;;;;;31.07;11.50;;;;;;;12.90;100.00;99431.34;2077383;28;20439;-59
2023/03/11 01:57:17;;;;;;;100.10;16.23;;;;;;;12.89;100.00;99435.38;2080785;28;20447;-59
2023/03/11 01:58:24;;;;;;;42.60;16.10;;;;;;;12.66;100.00;99408.38;2079295;28;20565;-59
2023/03/11 01:59:29;;;;;;;12.53;11.33;;;;;;;12.90;100.00;99439.69;2073130;28;20240;-59
2023/03/11 02:00:30;;;;;;;11.37;10.37;;;;;;;12.16;100.00;99328.03;2074224;28;20917;-59
2023/03/11 02:01:30;;;;;;;30.33;12.73;;;;;;;12.90;100.00;99448.03;2081153;28;20781;-59
2023/03/11 02:02:36;;;;;;;44.50;14.23;;;;;;;12.85;100.00;99437.56;2073241;28;20193;-59
2023/03/11 02:03:39;;;;;;;19.07;13.30;;;;;;;12.88;100.00;99444.19;2081065;28;20259;-59
2023/03/11 02:04:40;;;;;;;12.97;11.73;;;;;;;12.85;100.00;99450.69;2074266;28;20869;-59
2023/03/11 02:05:41;;;;;;;41.63;14.63;;;;;;;12.85;100.00;99450.69;2079136;28;20461;-59
2023/03/11 02:06:42;;;;;;;50.10;14.80;;;;;;;12.83;100.00;99450.41;2080809;28;20487;-60
2023/03/11 02:07:42;;;;;;;39.57;13.77;;;;;;;12.84;100.00;99454.72;2081188;28;20231;-60
2023/03/11 02:08:44;;;;;;;23.57;14.80;;;;;;;12.82;100.00;99466.31;2081276;28;20173;-59
2023/03/11 02:09:45;;;;;;;79.47;15.67;;;;;;;12.81;100.00;99455.69;2081871;28;20228;-59
2023/03/11 02:10:47;;;;;;;35.37;14.10;;;;;;;12.81;100.00;99461.25;2088922;28;21129;-59
2023/03/11 02:11:47;;;;;;;13.63;12.43;;;;;;;12.84;100.00;99469.41;2081389;28;20261;-59
2023/03/11 02:12:50;;;;;;;11.17;10.07;;;;;;;12.85;100.00;99459.81;2081251;28;20474;-59
2023/03/11 02:13:52;;;;;;;10.13;9.13;;;;;;;12.87;100.00;99462.88;2081217;28;20674;-59
2023/03/11 02:14:53;;;;;;;8.00;7.17;;;;;;;12.87;100.00;99476.00;2081649;28;20530;-59
2023/03/11 02:15:53;;;;;;;13.40;12.10;;;;;;;12.87;100.00;99473.97;2081196;28;20967;-59
2023/03/11 02:16:56;;;;;;;13.40;12.20;;;;;;;12.90;100.00;99478.59;2080389;28;20219;-59
2023/03/11 02:17:58;;;;;;;12.27;11.20;;;;;;;12.94;100.00;99486.75;2081136;28;20192;-59
2023/03/11 02:19:03;;;;;;;10.37;9.47;;;;;;;12.94;100.00;99481.19;2081149;28;20420;-59
2023/03/11 02:20:11;;;;;;;13.50;12.17;;;;;;;12.96;100.00;99484.31;2081253;28;20449;-59
2023/03/11 02:21:38;;;;;;;12.83;11.73;;;;;;;12.96;100.00;99478.75;2081855;28;20431;-59
2023/03/11 02:22:42;;;;;;;10.43;9.53;;;;;;;12.82;100.00;99460.75;2075095;28;20523;-59
2023/03/11 02:24:14;;;;;;;10.10;9.20;;;;;;;12.97;100.00;99486.59;2081087;28;20441;-59
2023/03/11 02:25:41;;;;;;;7.30;6.60;;;;;;;13.01;100.00;99487.19;2074946;28;20564;-59
2023/03/11 02:26:59;;;;;;;5.00;4.50;;;;;;;12.96;100.00;99489.88;2072804;28;20396;-59
2023/03/11 02:28:02;;;;;;;5.60;5.10;;;;;;;12.98;100.00;99487.38;2073225;28;20404;-59
2023/03/11 02:29:05;;;;;;;7.17;6.40;;;;;;;13.06;100.00;99483.00;2081237;28;20474;-59
2023/03/11 02:30:09;;;;;;;7.50;6.90;;;;;;;13.09;100.00;99482.81;2073106;28;20949;-59
2023/03/11 02:31:10;;;;;;;7.87;7.07;;;;;;;13.08;100.00;99497.97;2087490;28;20447;-59
2023/03/11 02:32:10;;;;;;;10.03;9.03;;;;;;;13.09;100.00;99482.81;2076630;28;20440;-59
2023/03/11 02:33:13;;;;;;;11.37;9.73;;;;;;;13.00;100.00;99490.44;2083287;28;20193;-59
2023/03/11 02:34:26;;;;;;;10.60;9.70;;;;;;;13.04;100.00;99483.47;2084783;28;20651;-59
2023/03/11 02:35:27;;;;;;;9.47;8.63;;;;;;;13.04;100.00;99483.47;2081153;28;20446;-59
2023/03/11 02:36:38;;;;;;;9.37;8.57;;;;;;;13.06;100.00;99488.56;2077361;28;20949;-59
2023/03/11 02:37:44;;;;;;;7.90;7.20;;;;;;;13.04;100.00;99486.25;2076636;28;20188;-59
2023/03/11 02:38:45;;;;;;;9.10;8.20;;;;;;;13.05;100.00;99484.22;2077378;28;20431;-59
2023/03/11 02:39:49;;;;;;;8.63;7.93;;;;;;;12.40;100.00;99404.53;2072830;28;20419;-59
2023/03/11 02:40:52;;;;;;;9.30;8.60;;;;;;;13.01;100.00;99487.19;2075238;28;20209;-60
2023/03/11 02:41:52;;;;;;;8.90;8.20;;;;;;;13.03;100.00;99486.72;2072657;28;20429;-59
2023/03/11 02:42:57;;;;;;;9.50;8.60;;;;;;;13.03;100.00;99495.06;2072924;28;21000;-59
2023/03/11 02:43:58;;;;;;;8.47;7.33;;;;;;;13.04;100.00;99482.69;2073048;28;20176;-58
2023/03/11 02:45:05;;;;;;;6.57;5.97;;;;;;;13.05;100.00;99492.56;2079494;28;20825;-59
2023/03/11 02:46:08;;;;;;;9.30;6.53;;;;;;;13.07;100.00;99492.88;2080340;28;20428;-59
2023/03/11 02:47:09;;;;;;;5.27;4.30;;;;;;;13.08;100.00;99491.63;2074147;28;20477;-59
2023/03/11 02:48:11;;;;;;;4.43;3.57;;;;;;;12.90;100.00;99470.25;2077928;28;20436;-59
2023/03/11 02:49:12;;;;;;;2.70;2.13;;;;;;;12.96;100.00;99487.09;2076790;28;20654;-59
2023/03/11 02:50:17;;;;;;;2.33;1.40;;;;;;;12.96;100.00;99492.66;2072843;28;20447;-60
2023/03/11 02:51:17;;;;;;;1.90;1.57;;;;;;;12.82;100.00;99476.66;2074888;28;20430;-59
2023/03/11 02:52:19;;;;;;;1.43;1.00;;;;;;;12.86;100.00;99472.44;2080768;28;20419;-59
2023/03/11 02:53:19;;;;;;;1.83;0.73;;;;;;;13.00;100.00;99493.22;2080847;28;20169;-59
2023/03/11 02:54:19;;;;;;;1.33;0.83;;;;;;;13.07;100.00;99490.84;2088997;28;20455;-59
2023/03/11 02:55:20;;;;;;;2.17;0.50;;;;;;;13.09;100.00;99491.16;2082070;28;20733;-59
2023/03/11 02:56:21;;;;;;;4.07;0.80;;;;;;;13.12;100.00;99497.78;2080805;28;20192;-59
2023/03/11 02:57:21;;;;;;;1.53;0.57;;;;;;;13.17;100.00;99497.13;2075536;28;20652;-59
2023/03/11 02:58:21;;;;;;;1.43;0.50;;;;;;;13.22;100.00;99502.03;2075724;28;20241;-59
2023/03/11 02:59:22;;;;;;;0.83;0.50;;;;;;;13.28;100.00;99502.91;2078190;28;20170;-59
2023/03/11 03:00:23;;;;;;;2.30;0.60;;;;;;;13.32;100.00;99503.50;2073830;28;20181;-59
2023/03/11 03:01:24;;;;;;;3.30;0.43;;;;;;;13.22;100.00;99482.56;2080283;28;20214;-59
2023/03/11 03:02:24;;;;;;;1.47;0.60;;;;;;;13.44;100.00;99502.44;2072955;28;20936;-59
2023/03/11 03:03:25;;;;;;;3.07;0.73;;;;;;;13.50;100.00;99500.53;2080072;28;20215;-59
2023/03/11 03:04:25;;;;;;;2.27;0.70;;;;;;;13.48;100.00;99489.09;2074841;28;20572;-59
2023/03/11 03:05:26;;;;;;;0.90;0.60;;;;;;;13.43;100.00;99478.66;2077539;28;20319;-60
2023/03/11 03:06:27;;;;;;;1.87;0.60;;;;;;;13.61;100.00;99501.50;2077028;28;20197;-59
2023/03/11 03:07:28;;;;;;;1.37;0.70;;;;;;;13.50;100.00;99472.69;2077409;28;20800;-59
2023/03/11 03:08:28;;;;;;;1.43;0.60;;;;;;;13.73;100.00;99497.66;2085295;28;20559;-60
2023/03/11 03:09:29;;;;;;;2.43;0.90;;;;;;;13.77;100.00;99500.22;2072435;28;20188;-59
2023/03/11 03:10:29;;;;;;;3.07;1.00;;;;;;;13.76;100.00;99496.69;2087662;28;20175;-59
2023/03/11 03:11:30;;;;;;;2.63;1.00;;;;;;;13.68;100.00;99486.44;2081389;28;20662;-59
2023/03/11 03:12:30;;;;;;;0.83;0.50;;;;;;;13.79;100.00;99504.06;2080688;28;20234;-59
2023/03/11 03:13:31;;;;;;;2.20;0.70;;;;;;;13.56;100.00;99457.63;2075791;28;20196;-59
2023/03/11 03:14:32;;;;;;;1.63;0.93;;;;;;;13.89;100.00;99505.50;2076168;28;20216;-59
2023/03/11 03:15:32;;;;;;;3.87;1.07;;;;;;;13.81;100.00;99496.03;2078001;28;20291;-59
2023/03/11 03:16:32;;;;;;;2.07;0.80;;;;;;;13.86;100.00;99497.34;2074016;28;20182;-59
2023/03/11 03:17:33;;;;;;;1.40;0.70;;;;;;;13.92;100.00;99509.34;2079832;28;20229;-59
2023/03/11 03:18:33;;;;;;;1.13;0.70;;;;;;;13.90;100.00;99511.84;2072797;28;20323;-59
2023/03/11 03:19:34;;;;;;;2.17;0.70;;;;;;;13.88;100.00;99512.34;2080050;28;20749;-59
2023/03/11 03:20:34;;;;;;;1.20;0.77;;;;;;;13.92;100.00;99514.91;2074470;28;20191;-59
2023/03/11 03:21:35;;;;;;;2.77;0.70;;;;;;;13.84;100.00;99508.22;2077244;28;20257;-59
2023/03/11 03:22:35;;;;;;;2.37;0.93;;;;;;;13.85;100.00;99515.31;2080533;28;20680;-59
2023/03/11 03:23:36;;;;;;;1.17;0.80;;;;;;;13.85;100.00;99520.88;2080823;28;20231;-59
2023/03/11 03:24:37;;;;;;;1.90;0.80;;;;;;;13.81;100.00;99507.16;2079018;28;20180;-59
2023/03/11 03:25:41;;;;;;;1.90;0.83;;;;;;;13.81;100.00;99506.38;2073049;28;20511;-59
2023/03/11 03:26:41;;;;;;;1.03;0.73;;;;;;;13.80;100.00;99519.56;2080439;28;20175;-59
2023/03/11 03:27:42;;;;;;;2.77;1.00;;;;;;;13.82;100.00;99505.91;2072503;28;20434;-59
2023/03/11 03:28:42;;;;;;;2.67;0.83;;;;;;;13.83;100.00;99515.03;2072417;28;20192;-59
2023/03/11 03:29:43;;;;;;;0.70;0.70;;;;;;;13.84;100.00;99506.19;2072591;28;20706;-59
2023/03/11 03:30:43;;;;;;;1.20;0.90;;;;;;;13.85;100.00;99515.31;2083580;28;20552;-59
2023/03/11 03:31:44;;;;;;;1.83;0.70;;;;;;;13.87;100.00;99510.03;2077071;28;20278;-59
2023/03/11 03:32:44;;;;;;;1.93;0.90;;;;;;;13.92;100.00;99507.34;2074664;28;20170;-59
2023/03/11 03:33:45;;;;;;;1.50;0.70;;;;;;;13.92;100.00;99507.34;2079557;28;20182;-59
2023/03/11 03:34:45;;;;;;;1.33;0.80;;;;;;;13.90;100.00;99509.06;2072461;28;20179;-59
2023/03/11 03:35:46;;;;;;;1.10;0.80;;;;;;;13.27;100.00;99407.53;2080598;28;20248;-59
2023/03/11 03:36:46;;;;;;;2.90;0.60;;;;;;;13.95;100.00;99511.97;2073099;28;20188;-59
2023/03/11 03:37:47;;;;;;;2.93;0.97;;;;;;;13.99;100.00;99506.19;2078404;28;20240;-59
2023/03/11 03:38:47;;;;;;;1.17;0.53;;;;;;;13.98;100.00;99507.44;2080576;28;20188;-59
2023/03/11 03:39:48;;;;;;;1.10;0.70;;;;;;;13.99;100.00;99506.94;2077360;28;20637;-59
2023/03/11 03:40:48;;;;;;;1.37;0.60;;;;;;;14.00;100.00;99493.78;2078702;28;20646;-59
2023/03/11 03:41:49;;;;;;;1.90;0.60;;;;;;;13.89;100.00;99488.81;2087438;28;20189;-59
2023/03/11 03:42:49;;;;;;;1.80;0.77;;;;;;;13.76;100.00;99474.44;2080597;28;20174;-59
2023/03/11 03:43:50;;;;;;;2.67;0.60;;;;;;;13.85;100.00;99488.25;2088989;28;20696;-59
2023/03/11 03:44:51;;;;;;;2.20;0.60;;;;;;;13.85;100.00;99487.47;2081706;28;20654;-59
2023/03/11 03:45:57;;;;;;;2.03;0.70;;;;;;;13.77;100.00;99487.09;2086808;28;20190;-59
2023/03/11 03:46:57;;;;;;;1.70;0.60;;;;;;;13.84;100.00;99492.25;2082621;28;20902;-59
2023/03/11 03:47:58;;;;;;;0.50;0.50;;;;;;;13.83;100.00;99490.72;2080485;28;20541;-59
2023/03/11 03:48:58;;;;;;;2.53;0.53;;;;;;;13.81;100.00;99495.25;2080447;28;20190;-59
2023/03/11 03:49:59;;;;;;;0.93;0.53;;;;;;;13.82;100.00;99496.78;2080558;28;20659;-60
2023/03/11 03:51:08;;;;;;;0.93;0.57;;;;;;;13.80;100.00;99496.50;2080927;28;20224;-59
2023/03/11 03:52:09;;;;;;;0.70;0.60;;;;;;;13.80;100.00;99499.28;2088023;28;20168;-58
2023/03/11 03:53:09;;;;;;;1.00;0.60;;;;;;;13.65;100.00;99479.03;2080738;28;20425;-59
2023/03/11 03:54:10;;;;;;;2.03;0.70;;;;;;;13.75;100.00;99495.16;2088416;28;20582;-59
2023/03/11 03:55:10;;;;;;;0.40;0.40;;;;;;;13.73;100.00;99500.44;2081888;28;20195;-59
2023/03/11 03:56:14;;;;;;;0.90;0.60;;;;;;;13.73;100.00;99494.84;2086121;28;20190;-59
2023/03/11 03:57:14;;;;;;;1.23;0.63;;;;;;;13.76;100.00;99501.47;2083177;28;20300;-59
2023/03/11 03:58:15;;;;;;;0.90;0.70;;;;;;;13.75;100.00;99492.38;2084034;28;20448;-59
2023/03/11 03:59:15;;;;;;;1.00;0.60;;;;;;;13.68;100.00;99492.75;2086164;28;20162;-59
2023/03/11 04:00:16;;;;;;;0.73;0.50;;;;;;;13.71;100.00;99496.59;2081841;28;20640;-59
2023/03/11 04:01:17;;;;;;;0.70;0.53;;;;;;;13.23;100.00;99443.09;2088109;28;20168;-59
2023/03/11 04:02:17;;;;;;;2.13;0.80;;;;;;;13.60;100.00;99497.19;2080686;28;20193;-59
2023/03/11 04:03:17;;;;;;;3.30;0.70;;;;;;;13.62;100.00;99497.47;2087835;28;20194;-59
2023/03/11 04:04:18;;;;;;;1.63;0.60;;;;;;;13.32;100.00;99445.81;2082500;28;20338;-59
2023/03/11 04:05:18;;;;;;;1.90;0.50;;;;;;;13.70;100.00;99495.84;2085428;28;20193;-59
2023/03/11 04:06:22;;;;;;;2.70;0.77;;;;;;;13.73;100.00;99500.44;2084841;28;20665;-59
2023/03/11 04:07:22;;;;;;;2.67;0.70;;;;;;;13.69;100.00;99487.97;2080049;28;20244;-59
2023/03/11 04:08:22;;;;;;;1.27;0.60;;;;;;;13.80;100.00;99493.72;2080369;28;20408;-59
2023/03/11 04:09:23;;;;;;;2.50;0.70;;;;;;;13.76;100.00;99491.13;2080408;28;20177;-59
2023/03/11 04:10:24;;;;;;;3.03;0.90;;;;;;;13.21;100.00;99415.00;2086558;28;20251;-59
2023/03/11 04:11:24;;;;;;;1.00;0.60;;;;;;;13.80;100.00;99494.50;2081942;28;20207;-59
2023/03/11 04:12:25;;;;;;;2.70;0.70;;;;;;;13.68;100.00;99469.72;2082148;28;20630;-59
2023/03/11 04:13:25;;;;;;;1.13;0.63;;;;;;;13.73;100.00;99486.50;2082212;28;20245;-59
2023/03/11 04:14:26;;;;;;;0.80;0.50;;;;;;;13.74;100.00;99488.03;2081938;28;20244;-59
2023/03/11 04:15:26;;;;;;;1.17;0.60;;;;;;;13.74;100.00;99493.59;2082211;28;20186;-59
2023/03/11 04:16:26;;;;;;;1.70;0.60;;;;;;;13.71;100.00;99479.88;2082108;28;20179;-59
2023/03/11 04:17:27;;;;;;;2.23;0.57;;;;;;;13.69;100.00;99488.72;2081487;28;20248;-59
2023/03/11 04:18:27;;;;;;;1.73;0.70;;;;;;;13.69;100.00;99485.19;2082162;28;20186;-59
2023/03/11 04:19:28;;;;;;;1.10;0.67;;;;;;;13.70;100.00;99487.47;2074780;28;20215;-59
2023/03/11 04:20:28;;;;;;;1.40;0.60;;;;;;;13.71;100.00;99482.66;2080289;28;20186;-59
2023/03/11 04:21:29;;;;;;;0.87;0.70;;;;;;;13.23;100.00;99423.63;2076695;28;20648;-59
2023/03/11 04:22:30;;;;;;;2.10;0.70;;;;;;;13.62;100.00;99486.31;2077837;28;20666;-59
2023/03/11 04:23:30;;;;;;;2.00;0.60;;;;;;;13.65;100.00;99490.16;2073890;28;20788;-59
2023/03/11 04:24:31;;;;;;;1.37;0.60;;;;;;;13.67;100.00;99480.09;2074737;28;20182;-59
2023/03/11 04:25:33;;;;;;;0.93;0.50;;;;;;;13.69;100.00;99485.94;2081090;28;20725;-59
2023/03/11 04:26:34;;;;;;;0.63;0.50;;;;;;;13.17;100.00;99400.53;2074043;28;20281;-59
2023/03/11 04:27:34;;;;;;;1.00;0.50;;;;;;;13.71;100.00;99482.66;2081156;28;21019;-58
2023/03/11 04:28:35;;;;;;;3.60;0.87;;;;;;;13.53;100.00;99455.78;2081981;28;20926;-59
2023/03/11 04:29:35;;;;;;;2.93;0.70;;;;;;;13.41;100.00;99429.03;2076652;28;20180;-59
2023/03/11 04:30:36;;;;;;;2.20;0.60;;;;;;;13.76;100.00;99482.00;2073749;28;20191;-59
2023/03/11 04:31:37;;;;;;;2.17;0.77;;;;;;;13.45;100.00;99431.63;2076946;28;20186;-59
2023/03/11 04:32:37;;;;;;;2.30;0.67;;;;;;;13.79;100.00;99476.22;2081712;28;20507;-59
2023/03/11 04:33:38;;;;;;;1.40;0.70;;;;;;;13.75;100.00;99472.88;2081039;28;20179;-59
2023/03/11 04:34:38;;;;;;;2.37;0.77;;;;;;;13.84;100.00;99486.69;2073810;28;20187;-59
2023/03/11 04:35:39;;;;;;;1.53;0.60;;;;;;;13.86;100.00;99480.66;2073998;28;20216;-59
2023/03/11 04:36:40;;;;;;;2.43;0.70;;;;;;;13.85;100.00;99482.69;2073495;28;20224;-59
2023/03/11 04:37:40;;;;;;;1.03;0.60;;;;;;;13.83;100.00;99487.94;2079671;28;20217;-59
2023/03/11 04:38:40;;;;;;;1.60;0.60;;;;;;;13.84;100.00;99492.25;2077188;28;20207;-59
2023/03/11 04:39:41;;;;;;;3.10;0.80;;;;;;;13.80;100.00;99488.16;2077317;28;20192;-59
2023/03/11 04:40:41;;;;;;;1.27;0.60;;;;;;;13.14;100.00;99389.59;2081819;28;20261;-59
2023/03/11 04:41:42;;;;;;;1.20;0.60;;;;;;;13.86;100.00;99486.22;2081675;28;20174;-59
2023/03/11 04:42:42;;;;;;;1.17;0.60;;;;;;;13.84;100.00;99492.25;2081816;28;20662;-59
2023/03/11 04:43:42;;;;;;;1.50;0.57;;;;;;;13.83;100.00;99487.94;2074088;28;20179;-59